Hensley, Arkansas
Current Conditions -  °F | °C
As of 3:53 AM on Thursday 23 Oct 2014 (Local Time) from KLIT Reporting Station
Scattered Clouds Scattered Clouds  
Wind Chill: 49°   Ceiling: Unl
Heat Index: 49°   Visibility: 10mi
Dew Point: 43°   Wind: 0mph
Humidity: 80%   Direction: NA
Pressure: 30.17"   Gusts: NA
Location:  34.51°N, 92.21°W
Report Text: KLIT 230853Z 00000KT 10SM SCT150 09/06 A3017 RMK AO2 SLP219 T00940061 58005
Loading
Personal Weather Stations






























Interactive Weather Map
Tropical Storm Tracking
New forecast layout! Learn more

10-Day Weather Forecast

Advertisements
Track Severe Weather on mobile